Sanford, California
Current Conditions -  °F | °C
As of 6:47 PM on Saturday 22 Nov 2014 (Local Time) from KCQT Reporting Station
Clear Clear  
Wind Chill: 17°   Ceiling: Unl
Heat Index: 17°   Visibility: 10mi
Dew Point: 12°   Wind: 0mph
Humidity: 72%   Direction: NA
Pressure: 30.01"   Gusts: NA
Location:  34.0664°N, 118.31°W
Report Text: KCQT 230247Z AUTO 00000KT 10SM CLR 17/12 A3001 RMK AO2 SLP161 T01720122 55004
Loading
Personal Weather Stations






























Interactive Weather Map New forecast layout! Learn more

10-Day Weather Forecast

Advertisements
Track Severe Weather on mobile